createdAt,value
2017-11-06T00:00:32.209Z,96614.16
2017-11-06T00:02:58.377Z,96612.33
2017-11-06T00:05:24.439Z,96615.55
2017-11-06T00:07:50.603Z,96614.96
2017-11-06T00:10:16.756Z,96610.45
2017-11-06T00:12:42.883Z,96614.33
2017-11-06T00:15:08.960Z,96618.55
2017-11-06T00:17:35.047Z,96621.18
2017-11-06T00:20:01.123Z,96621.33
2017-11-06T00:22:27.348Z,96624.14
2017-11-06T00:24:53.492Z,96619.42
2017-11-06T00:27:19.566Z,96613.16
2017-11-06T00:29:45.671Z,96613.45
2017-11-06T00:32:11.791Z,96627.64
2017-11-06T00:34:37.908Z,96631.44
2017-11-06T00:37:03.955Z,96637.99
2017-11-06T00:39:30.067Z,96641.96
2017-11-06T00:41:56.158Z,96649.59
2017-11-06T00:44:29.085Z,96655.72
2017-11-06T00:46:55.196Z,96660.72
2017-11-06T00:49:21.272Z,96665.42
2017-11-06T00:51:47.351Z,96671.45
2017-11-06T00:54:13.460Z,96664.91
2017-11-06T00:56:39.537Z,96675.59
2017-11-06T00:59:05.598Z,96672.63
2017-11-06T01:01:31.623Z,96682.62
2017-11-06T01:03:57.704Z,96683.34
2017-11-06T01:06:24.151Z,96691.23
2017-11-06T01:08:50.254Z,96693.21
2017-11-06T01:11:16.342Z,96690.10
2017-11-06T01:13:42.441Z,96695.88
2017-11-06T01:16:08.510Z,96698.22
2017-11-06T01:18:35.007Z,96701.09
2017-11-06T01:21:01.202Z,96705.94
2017-11-06T01:23:27.323Z,96706.70
2017-11-06T01:25:53.426Z,96711.66
2017-11-06T01:28:19.535Z,96708.13
2017-11-06T01:30:45.676Z,96716.03
2017-11-06T01:33:11.780Z,96719.14
2017-11-06T01:35:37.921Z,96716.77
2017-11-06T01:38:04.031Z,96722.58
2017-11-06T01:40:30.170Z,96719.58
2017-11-06T01:42:56.570Z,96719.72
2017-11-06T01:45:22.670Z,96723.52
2017-11-06T01:47:48.801Z,96722.93
2017-11-06T01:50:15.022Z,96728.86
2017-11-06T01:52:41.098Z,96722.64
2017-11-06T01:55:07.257Z,96724.69
2017-11-06T01:57:36.215Z,96721.48
2017-11-06T02:00:06.206Z,96727.84
2017-11-06T02:02:32.215Z,96732.03
2017-11-06T02:04:58.295Z,96727.05
2017-11-06T02:07:24.318Z,96728.06
2017-11-06T02:09:50.546Z,96729.81
2017-11-06T02:12:16.680Z,96726.10
2017-11-06T02:14:42.786Z,96731.73
2017-11-06T02:17:09.218Z,96725.09
2017-11-06T02:19:35.226Z,96723.23
2017-11-06T02:22:01.311Z,96729.80
2017-11-06T02:24:27.369Z,96730.36
2017-11-06T02:26:53.415Z,96725.20
2017-11-06T02:29:19.478Z,96729.11
2017-11-06T02:31:45.554Z,96728.79
2017-11-06T02:34:11.669Z,96729.05
2017-11-06T02:36:38.026Z,96730.20
2017-11-06T02:39:04.087Z,96727.17
2017-11-06T02:41:30.182Z,96730.14
2017-11-06T02:43:56.283Z,96731.35
2017-11-06T02:46:22.369Z,96728.41
2017-11-06T02:48:48.519Z,96733.84
2017-11-06T02:51:14.602Z,96735.64
2017-11-06T02:53:40.712Z,96745.95
2017-11-06T02:56:06.791Z,96747.98
2017-11-06T02:58:32.868Z,96754.08
2017-11-06T03:00:58.966Z,96755.39
2017-11-06T03:03:25.078Z,96758.88
2017-11-06T03:05:51.176Z,96764.80
2017-11-06T03:08:17.246Z,96762.41
2017-11-06T03:10:43.309Z,96756.36
2017-11-06T03:13:09.398Z,96764.19
2017-11-06T03:15:35.515Z,96770.70
2017-11-06T03:18:01.562Z,96773.31
2017-11-06T03:20:27.931Z,96783.30
2017-11-06T03:22:54.036Z,96771.86
2017-11-06T03:25:20.047Z,96777.83
2017-11-06T03:27:46.149Z,96779.88
2017-11-06T03:30:12.240Z,96792.13
2017-11-06T03:32:38.374Z,96789.67
2017-11-06T03:35:04.459Z,96792.13
2017-11-06T03:37:30.642Z,96801.34
2017-11-06T03:39:56.761Z,96809.02
2017-11-06T03:42:22.794Z,96805.79
2017-11-06T03:44:48.828Z,96800.18
2017-11-06T03:47:14.903Z,96812.27
2017-11-06T03:49:40.970Z,96812.38
2017-11-06T03:52:07.054Z,96820.56
2017-11-06T03:54:33.139Z,96830.13
2017-11-06T03:56:59.358Z,96833.39
2017-11-06T03:59:25.959Z,96836.80
2017-11-06T04:01:52.353Z,96832.97
2017-11-06T04:04:18.454Z,96840.33
2017-11-06T04:06:44.560Z,96842.11
2017-11-06T04:09:10.710Z,96841.54
2017-11-06T04:11:37.046Z,96840.19
2017-11-06T04:14:03.201Z,96844.20
2017-11-06T04:16:29.366Z,96842.84
2017-11-06T04:18:55.446Z,96851.89
2017-11-06T04:21:21.537Z,96855.04
2017-11-06T04:23:47.639Z,96858.16
2017-11-06T04:26:13.737Z,96853.84
2017-11-06T04:28:39.847Z,96854.19
2017-11-06T04:31:05.908Z,96855.43
2017-11-06T04:33:33.942Z,96861.24
2017-11-06T04:36:00.025Z,96859.75
2017-11-06T04:38:26.098Z,96851.36
2017-11-06T04:40:52.202Z,96861.70
2017-11-06T04:43:18.257Z,96854.69
2017-11-06T04:45:44.354Z,96865.77
2017-11-06T04:48:10.618Z,96871.83
2017-11-06T04:50:36.682Z,96871.41
2017-11-06T04:53:02.787Z,96874.96
2017-11-06T04:55:28.915Z,96879.84
2017-11-06T04:57:55.015Z,96886.19
2017-11-06T05:00:21.115Z,96884.13
2017-11-06T05:02:47.210Z,96894.72
2017-11-06T05:05:13.281Z,96888.42
2017-11-06T05:07:39.381Z,96899.27
2017-11-06T05:10:05.532Z,96903.27
2017-11-06T05:12:31.576Z,96908.58
2017-11-06T05:14:57.706Z,96910.81
2017-11-06T05:17:23.775Z,96918.63
2017-11-06T05:19:49.890Z,96921.56
2017-11-06T05:22:16.379Z,96925.00
2017-11-06T05:24:42.459Z,96931.79
2017-11-06T05:27:08.551Z,96933.94
2017-11-06T05:29:34.623Z,96933.96
2017-11-06T05:32:00.711Z,96933.55
2017-11-06T05:34:26.847Z,96936.92
2017-11-06T05:36:53.039Z,96940.05
2017-11-06T05:39:19.154Z,96936.45
2017-11-06T05:41:45.274Z,96942.09
2017-11-06T05:44:11.426Z,96946.86
2017-11-06T05:46:37.527Z,96950.27
2017-11-06T05:49:03.572Z,96947.92
2017-11-06T05:51:29.750Z,96949.54
2017-11-06T05:53:55.839Z,96959.85
2017-11-06T05:56:22.013Z,96966.86
2017-11-06T05:58:48.031Z,96971.77
2017-11-06T06:01:14.160Z,96965.44
2017-11-06T06:03:40.318Z,96966.97
2017-11-06T06:06:06.407Z,96964.09
2017-11-06T06:08:32.546Z,96962.53
2017-11-06T06:10:58.659Z,96960.80
2017-11-06T06:13:24.778Z,96962.17
2017-11-06T06:15:51.197Z,96966.13
2017-11-06T06:18:17.268Z,96961.03
2017-11-06T06:20:43.355Z,96958.08
2017-11-06T06:23:09.480Z,96971.91
2017-11-06T06:25:35.583Z,96975.50
2017-11-06T06:28:01.730Z,96981.00
2017-11-06T06:30:27.843Z,96980.86
2017-11-06T06:32:53.987Z,96990.42
2017-11-06T06:35:21.013Z,96997.00
2017-11-06T06:37:47.125Z,96997.39
2017-11-06T06:40:13.152Z,96999.09
2017-11-06T06:42:39.228Z,96999.31
2017-11-06T06:45:05.423Z,96998.95
2017-11-06T06:47:31.559Z,96998.15
2017-11-06T06:49:57.639Z,96994.63
2017-11-06T06:52:23.773Z,96998.91
2017-11-06T06:54:49.886Z,96998.45
2017-11-06T06:57:15.991Z,97006.17
2017-11-06T06:59:42.031Z,97003.27
2017-11-06T07:02:08.092Z,96999.63
2017-11-06T07:04:34.215Z,97011.48
2017-11-06T07:07:00.418Z,97009.33
2017-11-06T07:09:26.790Z,97005.87
2017-11-06T07:11:52.963Z,97015.53
2017-11-06T07:14:19.035Z,97023.38
2017-11-06T07:16:45.067Z,97033.86
2017-11-06T07:19:11.149Z,97030.36
2017-11-06T07:21:37.224Z,97037.50
2017-11-06T07:24:03.281Z,97042.85
2017-11-06T07:26:29.378Z,97043.41
2017-11-06T07:28:55.427Z,97040.12
2017-11-06T07:31:21.512Z,97048.73
2017-11-06T07:33:47.659Z,97044.66
2017-11-06T07:36:13.810Z,97050.80
2017-11-06T07:38:39.947Z,97054.48
2017-11-06T07:41:06.015Z,97052.41
2017-11-06T07:43:32.084Z,97070.33
2017-11-06T07:45:58.521Z,97081.46
2017-11-06T07:48:24.679Z,97085.45
2017-11-06T07:50:50.756Z,97085.70
2017-11-06T07:53:16.923Z,97080.77
2017-11-06T07:55:43.000Z,97086.27
2017-11-06T07:58:09.099Z,97089.27
2017-11-06T08:00:35.166Z,97099.08
2017-11-06T08:03:01.258Z,97105.83
2017-11-06T08:05:27.342Z,97103.56
2017-11-06T08:07:53.760Z,97097.67
2017-11-06T08:10:19.863Z,97103.50
2017-11-06T08:12:45.956Z,97113.23
2017-11-06T08:15:12.044Z,97103.31
2017-11-06T08:17:38.387Z,97109.31
2017-11-06T08:20:04.553Z,97111.61
2017-11-06T08:22:31.022Z,97118.91
2017-11-06T08:24:57.103Z,97122.94
2017-11-06T08:27:23.240Z,97126.52
2017-11-06T08:29:49.329Z,97129.45
2017-11-06T08:32:15.412Z,97125.30
2017-11-06T08:34:41.571Z,97134.63
2017-11-06T08:37:07.662Z,97134.41
2017-11-06T08:39:33.764Z,97145.44
2017-11-06T08:41:59.842Z,97145.41
2017-11-06T08:44:25.979Z,97148.80
2017-11-06T08:46:52.040Z,97151.46
2017-11-06T08:49:18.127Z,97162.83
2017-11-06T08:51:44.184Z,97166.44
2017-11-06T08:54:10.263Z,97168.75
2017-11-06T08:56:36.355Z,97174.18
2017-11-06T08:59:02.609Z,97165.11
2017-11-06T09:01:28.833Z,97165.09
2017-11-06T09:03:55.002Z,97172.83
2017-11-06T09:06:21.101Z,97160.38
2017-11-06T09:08:47.226Z,97166.94
2017-11-06T09:11:13.353Z,97163.48
2017-11-06T09:13:39.427Z,97166.86
2017-11-06T09:16:05.528Z,97167.30
2017-11-06T09:18:31.582Z,97169.26
2017-11-06T09:20:57.672Z,97169.82
2017-11-06T09:23:23.731Z,97176.97
2017-11-06T09:25:49.814Z,97178.05
2017-11-06T09:28:15.906Z,97177.11
2017-11-06T09:30:42.039Z,97177.61
2017-11-06T09:33:08.135Z,97180.47
2017-11-06T09:35:34.242Z,97177.11
2017-11-06T09:38:00.318Z,97173.45
2017-11-06T09:40:26.414Z,97177.83
2017-11-06T09:42:52.492Z,97180.48
2017-11-06T09:45:18.894Z,97183.28
2017-11-06T09:47:44.990Z,97180.42
2017-11-06T09:50:11.110Z,97192.08
2017-11-06T09:52:37.332Z,97194.22
2017-11-06T09:55:03.539Z,97195.31
2017-11-06T09:57:29.672Z,97195.23
2017-11-06T09:59:56.135Z,97189.93
2017-11-06T10:02:22.215Z,97190.41
2017-11-06T10:04:48.256Z,97199.84
2017-11-06T10:07:14.370Z,97201.33
2017-11-06T10:09:40.477Z,97201.47
2017-11-06T10:12:06.497Z,97209.60
2017-11-06T10:14:32.598Z,97214.13
2017-11-06T10:16:58.664Z,97223.76
2017-11-06T10:19:24.734Z,97228.06
2017-11-06T10:21:50.754Z,97231.56
2017-11-06T10:24:16.913Z,97230.98
2017-11-06T10:26:43.022Z,97230.00
2017-11-06T10:29:09.147Z,97232.17
2017-11-06T10:31:35.291Z,97236.75
2017-11-06T10:34:01.409Z,97241.42
2017-11-06T10:36:27.545Z,97237.57
2017-11-06T10:38:53.649Z,97241.34
2017-11-06T10:41:19.799Z,97244.26
2017-11-06T10:43:45.924Z,97245.83
2017-11-06T10:46:12.008Z,97248.98
2017-11-06T10:48:38.071Z,97250.69
2017-11-06T10:51:04.148Z,97250.13
2017-11-06T10:53:30.323Z,97253.75
2017-11-06T10:55:56.371Z,97253.78
2017-11-06T10:58:22.605Z,97247.03
2017-11-06T11:00:48.631Z,97254.60
2017-11-06T11:03:14.722Z,97247.31
2017-11-06T11:05:40.795Z,97243.13
2017-11-06T11:08:06.960Z,97246.89
2017-11-06T11:10:33.459Z,97248.99
2017-11-06T11:12:59.550Z,97245.08
2017-11-06T11:15:25.659Z,97255.67
2017-11-06T11:17:51.834Z,97249.27
2017-11-06T11:20:18.015Z,97254.89
2017-11-06T11:22:44.480Z,97250.55
2017-11-06T11:25:10.590Z,97260.26
2017-11-06T11:27:36.618Z,97260.69
2017-11-06T11:30:02.799Z,97262.09
2017-11-06T11:32:28.845Z,97256.06
2017-11-06T11:34:54.978Z,97262.81
2017-11-06T11:37:21.442Z,97262.35
2017-11-06T11:39:47.602Z,97256.02
2017-11-06T11:42:13.735Z,97264.13
2017-11-06T11:44:39.886Z,97262.42
2017-11-06T11:47:05.946Z,97270.63
2017-11-06T11:49:32.112Z,97263.56
2017-11-06T11:51:58.183Z,97270.77
2017-11-06T11:54:24.300Z,97272.45
2017-11-06T11:56:50.392Z,97272.97
2017-11-06T11:59:16.447Z,97272.47
2017-11-06T12:01:42.621Z,97267.99
2017-11-06T12:04:08.679Z,97270.20
2017-11-06T12:06:34.798Z,97271.51
2017-11-06T12:09:00.894Z,97276.65
2017-11-06T12:11:26.975Z,97277.58
2017-11-06T12:13:53.383Z,97269.50
2017-11-06T12:16:19.415Z,97272.91
2017-11-06T12:18:45.472Z,97270.67
2017-11-06T12:21:11.603Z,97267.36
2017-11-06T12:23:37.662Z,97269.81
2017-11-06T12:26:03.744Z,97267.11
2017-11-06T12:28:29.859Z,97261.67
2017-11-06T12:30:55.968Z,97266.48
2017-11-06T12:33:22.050Z,97268.50
2017-11-06T12:35:48.136Z,97268.19
2017-11-06T12:38:14.238Z,97260.72
2017-11-06T12:40:40.354Z,97258.69
2017-11-06T12:43:06.487Z,97252.36
2017-11-06T12:45:32.567Z,97252.75
2017-11-06T12:47:58.635Z,97252.80
2017-11-06T12:50:24.698Z,97248.13
2017-11-06T12:52:50.751Z,97257.41
2017-11-06T12:55:16.843Z,97253.71
2017-11-06T12:57:42.979Z,97254.95
2017-11-06T13:00:09.075Z,97261.49
2017-11-06T13:02:35.167Z,97260.33
2017-11-06T13:05:01.267Z,97264.13
2017-11-06T13:07:27.358Z,97262.78
2017-11-06T13:09:53.451Z,97265.69
2017-11-06T13:12:19.579Z,97268.53
2017-11-06T13:14:45.677Z,97270.02
2017-11-06T13:17:11.771Z,97279.09
2017-11-06T13:19:37.875Z,97287.55
2017-11-06T13:22:03.959Z,97288.01
2017-11-06T13:24:30.067Z,97282.11
2017-11-06T13:26:56.141Z,97285.63
2017-11-06T13:29:22.242Z,97286.83
2017-11-06T13:31:48.342Z,97271.80
2017-11-06T13:34:14.421Z,97264.45
2017-11-06T13:36:40.555Z,97263.41
2017-11-06T13:39:06.647Z,97269.28
2017-11-06T13:41:32.847Z,97279.37
2017-11-06T13:43:59.008Z,97274.11
2017-11-06T13:46:25.118Z,97276.74
2017-11-06T13:48:51.232Z,97286.83
2017-11-06T13:51:17.346Z,97290.77
2017-11-06T13:53:43.412Z,97297.41
2017-11-06T13:56:09.518Z,97302.72
2017-11-06T13:58:35.595Z,97300.91
2017-11-06T14:01:01.746Z,97300.77
2017-11-06T14:03:28.106Z,97304.95
2017-11-06T14:05:54.180Z,97304.88
2017-11-06T14:08:20.275Z,97303.50
2017-11-06T14:10:46.388Z,97305.13
2017-11-06T14:13:12.519Z,97303.03
2017-11-06T14:15:38.646Z,97308.84
2017-11-06T14:18:04.709Z,97311.84
2017-11-06T14:20:30.991Z,97320.17
2017-11-06T14:22:57.078Z,97322.16
2017-11-06T14:25:23.195Z,97318.64
2017-11-06T14:27:49.276Z,97323.17
2017-11-06T14:30:15.451Z,97320.48
2017-11-06T14:32:41.510Z,97329.75
2017-11-06T14:35:07.616Z,97324.91
2017-11-06T14:37:33.707Z,97338.42
2017-11-06T14:39:59.795Z,97338.48
2017-11-06T14:42:25.907Z,97337.84
2017-11-06T14:44:52.002Z,97341.36
2017-11-06T14:47:18.128Z,97343.48
2017-11-06T14:49:44.204Z,97346.76
2017-11-06T14:52:10.362Z,97347.96
2017-11-06T14:54:36.476Z,97352.23
2017-11-06T14:57:02.620Z,97354.31
2017-11-06T14:59:28.710Z,97351.94
2017-11-06T15:01:54.807Z,97354.92
2017-11-06T15:04:20.933Z,97353.19
2017-11-06T15:06:47.004Z,97364.85
2017-11-06T15:09:13.166Z,97366.61
2017-11-06T15:11:39.281Z,97371.20
2017-11-06T15:14:05.365Z,97373.28
2017-11-06T15:16:31.423Z,97382.27
2017-11-06T15:18:57.779Z,97379.55
2017-11-06T15:21:23.846Z,97381.56
2017-11-06T15:23:49.963Z,97378.81
2017-11-06T15:26:16.069Z,97374.34
2017-11-06T15:28:42.149Z,97373.42
2017-11-06T15:31:08.235Z,97376.60
2017-11-06T15:33:34.331Z,97386.61
2017-11-06T15:36:00.459Z,97383.72
2017-11-06T15:38:26.538Z,97386.30
2017-11-06T15:40:52.696Z,97385.83
2017-11-06T15:43:18.756Z,97386.16
2017-11-06T15:45:44.902Z,97384.08
2017-11-06T15:48:11.298Z,97380.88
2017-11-06T15:50:37.394Z,97387.83
2017-11-06T15:53:03.452Z,97386.66
2017-11-06T15:55:29.550Z,97392.70
2017-11-06T15:57:55.629Z,97398.79
2017-11-06T16:00:21.758Z,97398.12
2017-11-06T16:02:47.850Z,97394.62
2017-11-06T16:05:14.078Z,97396.84
2017-11-06T16:07:40.189Z,97406.83
2017-11-06T16:10:06.401Z,97407.53
2017-11-06T16:12:32.535Z,97411.33
2017-11-06T16:14:58.599Z,97409.59
2017-11-06T16:17:24.693Z,97399.91
2017-11-06T16:19:50.776Z,97405.73
2017-11-06T16:22:16.992Z,97417.33
2017-11-06T16:24:43.059Z,97419.45
2017-11-06T16:27:09.150Z,97426.19
2017-11-06T16:29:35.236Z,97426.99
2017-11-06T16:32:01.279Z,97417.42
2017-11-06T16:34:27.417Z,97418.11
2017-11-06T16:36:53.490Z,97422.30
2017-11-06T16:39:19.655Z,97423.92
2017-11-06T16:41:45.750Z,97425.35
2017-11-06T16:44:11.814Z,97435.31
2017-11-06T16:46:37.905Z,97437.68
2017-11-06T16:49:03.991Z,97431.47
2017-11-06T16:51:30.094Z,97432.02
2017-11-06T16:53:56.248Z,97441.31
2017-11-06T16:56:22.355Z,97439.08
2017-11-06T16:58:48.499Z,97443.42
2017-11-06T17:01:14.648Z,97445.25
2017-11-06T17:03:40.858Z,97451.42
2017-11-06T17:06:06.940Z,97447.52
2017-11-06T17:08:33.234Z,97446.06
2017-11-06T17:10:59.342Z,97449.36
2017-11-06T17:13:25.421Z,97446.69
2017-11-06T17:15:51.543Z,97461.82
2017-11-06T17:18:17.703Z,97461.84
2017-11-06T17:20:43.742Z,97457.66
2017-11-06T17:23:09.866Z,97460.80
2017-11-06T17:25:35.962Z,97461.84
2017-11-06T17:28:02.505Z,97467.36
2017-11-06T17:30:28.623Z,97471.58
2017-11-06T17:32:54.771Z,97469.75
2017-11-06T17:35:20.874Z,97469.07
2017-11-06T17:37:46.936Z,97469.59
2017-11-06T17:40:13.075Z,97471.95
2017-11-06T17:42:39.245Z,97474.29
2017-11-06T17:45:05.350Z,97476.69
2017-11-06T17:47:31.845Z,97478.40
2017-11-06T17:49:57.902Z,97471.44
2017-11-06T17:52:23.997Z,97468.98
2017-11-06T17:54:50.167Z,97470.16
2017-11-06T17:57:16.256Z,97463.45
2017-11-06T17:59:42.589Z,97466.88
2017-11-06T18:02:08.685Z,97467.36
2017-11-06T18:04:34.733Z,97464.14
2017-11-06T18:07:00.925Z,97468.86
2017-11-06T18:09:27.043Z,97473.33
2017-11-06T18:11:53.138Z,97469.91
2017-11-06T18:14:19.259Z,97464.14
2017-11-06T18:16:45.308Z,97472.80
2017-11-06T18:19:11.566Z,97470.19
2017-11-06T18:21:37.707Z,97471.64
2017-11-06T18:24:03.799Z,97474.77
2017-11-06T18:26:29.919Z,97475.83
2017-11-06T18:28:56.039Z,97479.24
2017-11-06T18:31:22.116Z,97474.26
2017-11-06T18:33:48.239Z,97462.31
2017-11-06T18:36:14.434Z,97464.80
2017-11-06T18:38:40.526Z,97461.53
2017-11-06T18:41:06.672Z,97463.36
2017-11-06T18:43:32.877Z,97470.31
2017-11-06T18:45:59.001Z,97478.85
2017-11-06T18:48:25.130Z,97485.78
2017-11-06T18:50:51.297Z,97468.08
2017-11-06T18:53:17.442Z,97469.77
2017-11-06T18:55:43.748Z,97474.09
2017-11-06T18:58:09.877Z,97474.09
2017-11-06T19:00:36.087Z,97467.67
2017-11-06T19:03:02.335Z,97472.78
2017-11-06T19:05:28.426Z,97467.23
2017-11-06T19:07:54.627Z,97469.61
2017-11-06T19:10:20.909Z,97474.34
2017-11-06T19:12:47.095Z,97473.01
2017-11-06T19:15:13.409Z,97472.63
2017-11-06T19:17:39.629Z,97481.45
2017-11-06T19:20:05.820Z,97484.44
2017-11-06T19:22:32.062Z,97486.16
2017-11-06T19:24:58.269Z,97485.63
2017-11-06T19:27:24.420Z,97486.02
2017-11-06T19:29:50.649Z,97484.84
2017-11-06T19:32:16.911Z,97486.29
2017-11-06T19:34:43.219Z,97490.23
2017-11-06T19:37:09.442Z,97492.46
2017-11-06T19:39:35.654Z,97498.34
2017-11-06T19:42:01.828Z,97499.94
2017-11-06T19:44:28.214Z,97496.25
2017-11-06T19:46:54.524Z,97493.89
2017-11-06T19:49:20.886Z,97494.81
2017-11-06T19:51:47.101Z,97485.23
2017-11-06T19:54:13.316Z,97484.55
2017-11-06T19:56:39.484Z,97485.36
2017-11-06T19:59:05.761Z,97492.72
2017-11-06T20:01:31.901Z,97497.17
2017-11-06T20:03:58.140Z,97499.52
2017-11-06T20:06:24.305Z,97492.72
2017-11-06T20:08:50.520Z,97498.21
2017-11-06T20:11:17.212Z,97487.84
2017-11-06T20:13:43.531Z,97491.80
2017-11-06T20:16:09.698Z,97495.09
2017-11-06T20:18:36.302Z,97491.00
2017-11-06T20:21:02.486Z,97497.71
2017-11-06T20:23:28.668Z,97492.14
2017-11-06T20:25:54.864Z,97496.11
2017-11-06T20:28:21.092Z,97487.59
2017-11-06T20:30:47.688Z,97497.82
2017-11-06T20:33:14.012Z,97490.73
2017-11-06T20:35:40.280Z,97489.94
2017-11-06T20:38:06.982Z,97484.66
2017-11-06T20:40:33.271Z,97487.45
2017-11-06T20:42:59.567Z,97490.33
2017-11-06T20:45:26.103Z,97489.02
2017-11-06T20:47:52.347Z,97486.67
2017-11-06T20:50:18.468Z,97487.60
2017-11-06T20:52:45.073Z,97491.92
2017-11-06T20:55:11.360Z,97492.19
2017-11-06T20:57:37.592Z,97495.09
2017-11-06T21:00:04.226Z,97499.66
2017-11-06T21:02:30.327Z,97496.38
2017-11-06T21:04:56.623Z,97500.58
2017-11-06T21:07:23.187Z,97488.13
2017-11-06T21:09:49.472Z,97484.96
2017-11-06T21:12:15.743Z,97486.11
2017-11-06T21:14:42.204Z,97489.30
2017-11-06T21:17:08.370Z,97486.78
2017-11-06T21:19:34.490Z,97486.92
2017-11-06T21:22:01.127Z,97485.23
2017-11-06T21:24:27.238Z,97492.84
2017-11-06T21:26:53.661Z,97495.06
2017-11-06T21:29:25.774Z,97497.70
2017-11-06T21:31:52.000Z,97504.66
2017-11-06T21:34:18.514Z,97497.17
2017-11-06T21:36:44.531Z,97500.33
2017-11-06T21:39:10.595Z,97498.20
2017-11-06T21:41:36.902Z,97501.37
2017-11-06T21:44:02.959Z,97500.17
2017-11-06T21:46:29.422Z,97497.83
2017-11-06T21:48:55.478Z,97500.70
2017-11-06T21:51:21.622Z,97501.22
2017-11-06T21:53:47.838Z,97495.95
2017-11-06T21:56:13.898Z,97495.69
2017-11-06T21:58:40.404Z,97503.83
2017-11-06T22:01:06.531Z,97496.33
2017-11-06T22:03:32.621Z,97496.47
2017-11-06T22:05:58.707Z,97491.89
2017-11-06T22:08:24.853Z,97489.00
2017-11-06T22:10:51.449Z,97484.78
2017-11-06T22:13:17.523Z,97489.12
2017-11-06T22:15:43.595Z,97480.05
2017-11-06T22:18:09.780Z,97488.06
2017-11-06T22:20:35.849Z,97480.58
2017-11-06T22:23:02.278Z,97484.11
2017-11-06T22:25:28.369Z,97482.15
2017-11-06T22:27:54.501Z,97490.56
2017-11-06T22:30:20.982Z,97490.95
2017-11-06T22:32:47.060Z,97483.05
2017-11-06T22:35:13.179Z,97482.27
2017-11-06T22:37:39.681Z,97484.09
2017-11-06T22:40:05.847Z,97477.42
2017-11-06T22:42:32.042Z,97474.90
2017-11-06T22:44:58.559Z,97480.58
2017-11-06T22:47:24.654Z,97480.55
2017-11-06T22:49:50.718Z,97474.92
2017-11-06T22:52:16.801Z,97479.41
2017-11-06T22:54:42.890Z,97472.45
2017-11-06T22:57:09.394Z,97472.70
2017-11-06T22:59:35.505Z,97477.80
2017-11-06T23:02:01.548Z,97478.23
2017-11-06T23:04:28.006Z,97476.73
2017-11-06T23:06:54.095Z,97485.44
2017-11-06T23:09:20.191Z,97481.36
2017-11-06T23:11:46.310Z,97479.98
2017-11-06T23:14:12.459Z,97475.94
2017-11-06T23:16:38.919Z,97469.53
2017-11-06T23:19:04.994Z,97470.56
2017-11-06T23:21:31.147Z,97472.41
2017-11-06T23:23:57.709Z,97472.02
2017-11-06T23:26:23.825Z,97468.86
2017-11-06T23:28:49.894Z,97465.31
2017-11-06T23:31:16.030Z,97473.84
2017-11-06T23:33:42.099Z,97470.94
2017-11-06T23:36:08.559Z,97470.55
2017-11-06T23:38:34.678Z,97469.80
2017-11-06T23:41:00.856Z,97466.88
2017-11-06T23:43:27.006Z,97469.02
2017-11-06T23:45:53.158Z,97467.04
2017-11-06T23:48:19.594Z,97466.35
2017-11-06T23:50:45.691Z,97469.38
2017-11-06T23:53:11.827Z,97464.65
2017-11-06T23:55:37.970Z,97466.38
2017-11-06T23:58:04.141Z,97463.98
